Time;durP1;ratioP1;P1;durP2;ratioP2;P2;SDS_P1;SDS_P2;PMS_P1;PMS_P2;Temp;Humidity;BMP_temperature;BMP_pressure;BME280_temperature;BME280_humidity;BME280_pressure;Samples;Min_cycle;Max_cycle;Signal;HPM_P1;HPM_P2
2022/07/28 00:00:44;;;;;;;;;;;;;;;21.20;64.88;99351.13;4993062;28;822;-63
2022/07/28 00:03:11;;;;;;;;;;;;;;;21.19;64.58;99352.41;4993037;28;878;-63
2022/07/28 00:05:39;;;;;;;;;;;;;;;21.11;64.79;99351.25;4993216;28;1944;-63
2022/07/28 00:08:08;;;;;;;;;;;;;;;21.01;65.01;99356.94;4992834;28;835;-63
2022/07/28 00:10:35;;;;;;;;;;;;;;;20.94;65.25;99348.91;4992644;28;846;-63
2022/07/28 00:13:02;;;;;;;;;;;;;;;20.90;65.05;99351.16;4992678;28;839;-63
2022/07/28 00:15:28;;;;;;;;;;;;;;;20.75;65.49;99351.16;4992610;28;882;-63
2022/07/28 00:17:55;;;;;;;;;;;;;;;20.67;65.85;99354.81;4992552;28;854;-63
2022/07/28 00:20:21;;;;;;;;;;;;;;;20.57;65.92;99354.13;4992422;28;812;-63
2022/07/28 00:22:47;;;;;;;;;;;;;;;20.44;66.36;99362.81;4992868;28;890;-63
2022/07/28 00:25:14;;;;;;;;;;;;;;;20.24;66.96;99357.81;4992028;28;1949;-63
2022/07/28 00:27:40;;;;;;;;;;;;;;;20.14;67.17;99356.34;4993207;28;748;-63
2022/07/28 00:30:07;;;;;;;;;;;;;;;20.04;67.54;99360.50;4992885;28;878;-63
2022/07/28 00:32:34;;;;;;;;;;;;;;;19.93;68.29;99363.84;4992748;28;960;-62
2022/07/28 00:35:00;;;;;;;;;;;;;;;19.88;68.92;99365.25;4992280;28;1275;-63
2022/07/28 00:37:27;;;;;;;;;;;;;;;19.83;69.18;99367.94;4992317;28;819;-63
2022/07/28 00:39:53;;;;;;;;;;;;;;;19.74;69.11;99372.34;4992189;28;886;-63
2022/07/28 00:42:20;;;;;;;;;;;;;;;19.69;68.91;99375.00;4992267;28;816;-63
2022/07/28 00:44:47;;;;;;;;;;;;;;;19.63;68.97;99377.69;4974673;28;1218;-62
2022/07/28 00:47:14;;;;;;;;;;;;;;;19.57;69.26;99373.97;4992149;28;1918;-63
2022/07/28 00:49:41;;;;;;;;;;;;;;;19.63;69.30;99379.69;4992020;28;814;-62
2022/07/28 00:52:08;;;;;;;;;;;;;;;19.67;69.34;99381.09;4992237;28;784;-62
2022/07/28 00:54:36;;;;;;;;;;;;;;;19.67;69.27;99378.28;4992017;28;847;-62
2022/07/28 00:57:02;;;;;;;;;;;;;;;19.72;69.41;99374.84;4992101;28;990;-62
2022/07/28 00:59:29;;;;;;;;;;;;;;;19.75;69.48;99370.31;4992302;28;851;-62
2022/07/28 01:01:57;;;;;;;;;;;;;;;19.73;70.11;99375.63;4992062;28;882;-62
2022/07/28 01:04:23;;;;;;;;;;;;;;;19.72;70.84;99372.06;4991984;28;890;-62
2022/07/28 01:06:56;;;;;;;;;;;;;;;19.74;71.56;99365.97;4991942;28;1959;-62
2022/07/28 01:09:33;;;;;;;;;;;;;;;19.76;71.61;99369.09;4992045;28;792;-62
2022/07/28 01:12:02;;;;;;;;;;;;;;;19.65;72.22;99365.97;4992147;28;902;-62
2022/07/28 01:14:36;;;;;;;;;;;;;;;19.57;72.72;99366.34;4974511;28;1177;-63
2022/07/28 01:17:02;;;;;;;;;;;;;;;19.43;73.61;99369.06;4992257;28;812;-63
2022/07/28 01:19:34;;;;;;;;;;;;;;;19.40;73.95;99364.41;4992055;28;835;-63
2022/07/28 01:22:03;;;;;;;;;;;;;;;19.38;73.99;99362.84;4991890;28;1032;-63
2022/07/28 01:24:32;;;;;;;;;;;;;;;19.36;73.92;99373.75;4974348;28;836;-62
2022/07/28 01:27:10;;;;;;;;;;;;;;;19.35;73.94;99371.41;4991754;28;1894;-63
2022/07/28 01:29:48;;;;;;;;;;;;;;;19.35;74.06;99365.81;4991814;28;942;-63
2022/07/28 01:32:35;;;;;;;;;;;;;;;19.28;74.29;99375.34;4991889;28;892;-63
2022/07/28 01:35:11;;;;;;;;;;;;;;;19.25;74.29;99373.50;4991382;28;1418;-63
2022/07/28 01:37:43;;;;;;;;;;;;;;;19.17;74.23;99375.84;4994450;28;869;-63
2022/07/28 01:40:12;;;;;;;;;;;;;;;19.12;74.58;99375.72;4977911;28;1201;-63
2022/07/28 01:42:40;;;;;;;;;;;;;;;19.08;75.02;99384.28;4995340;28;894;-63
2022/07/28 01:45:07;;;;;;;;;;;;;;;19.07;75.31;99382.72;4995278;28;1902;-62
2022/07/28 01:47:34;;;;;;;;;;;;;;;19.07;75.62;99381.94;4995210;28;811;-63
2022/07/28 01:50:03;;;;;;;;;;;;;;;19.02;75.48;99377.75;4995212;28;804;-63
2022/07/28 01:52:30;;;;;;;;;;;;;;;19.03;75.63;99372.94;4995205;28;839;-63
2022/07/28 01:54:58;;;;;;;;;;;;;;;19.09;75.62;99374.63;4995123;28;874;-64
2022/07/28 01:57:24;;;;;;;;;;;;;;;19.11;76.03;99376.97;4995109;28;862;-63
2022/07/28 01:59:52;;;;;;;;;;;;;;;19.16;76.25;99379.91;4995021;28;953;-63
2022/07/28 02:02:20;;;;;;;;;;;;;;;19.22;76.59;99387.66;4995014;28;803;-63
2022/07/28 02:04:47;;;;;;;;;;;;;;;19.27;77.08;99387.03;4995029;28;851;-63
2022/07/28 02:07:15;;;;;;;;;;;;;;;19.26;77.52;99391.84;4994822;28;1961;-63
2022/07/28 02:09:43;;;;;;;;;;;;;;;19.29;78.67;99384.53;4977445;28;816;-63
2022/07/28 02:12:12;;;;;;;;;;;;;;;19.35;79.38;99379.81;4977269;28;891;-63
2022/07/28 02:14:40;;;;;;;;;;;;;;;19.48;79.88;99383.22;4977251;28;1265;-63
2022/07/28 02:17:11;;;;;;;;;;;;;;;19.51;80.20;99399.06;4994709;28;839;-63
2022/07/28 02:19:39;;;;;;;;;;;;;;;19.44;80.70;99387.41;4994697;28;820;-63
2022/07/28 02:22:07;;;;;;;;;;;;;;;19.34;81.60;99390.25;4994620;28;783;-63
2022/07/28 02:24:35;;;;;;;;;;;;;;;19.35;82.41;99391.81;4994614;28;855;-63
2022/07/28 02:27:09;;;;;;;;;;;;;;;19.40;83.37;99407.22;4995020;28;1961;-63
2022/07/28 02:29:42;;;;;;;;;;;;;;;19.45;83.78;99400.19;4994539;28;803;-63
2022/07/28 02:32:13;;;;;;;;;;;;;;;19.47;84.24;99404.06;4994532;28;982;-63
2022/07/28 02:34:41;;;;;;;;;;;;;;;19.46;84.72;99404.53;4994196;28;1208;-63
2022/07/28 02:37:10;;;;;;;;;;;;;;;19.47;85.55;99404.06;4994379;28;885;-63
2022/07/28 02:39:48;;;;;;;;;;;;;;;19.50;86.40;99400.31;4994317;28;958;-63
2022/07/28 02:42:17;;;;;;;;;;;;;;;19.54;87.25;99400.94;4994319;28;796;-63
2022/07/28 02:44:48;;;;;;;;;;;;;;;19.56;88.03;99406.03;4994184;28;870;-63
2022/07/28 02:47:20;;;;;;;;;;;;;;;19.55;88.71;99404.50;4993853;28;1910;-63
2022/07/28 02:49:48;;;;;;;;;;;;;;;19.51;89.50;99410.28;4994389;28;808;-63
2022/07/28 02:52:15;;;;;;;;;;;;;;;19.53;90.10;99418.22;4994319;28;886;-63
2022/07/28 02:54:43;;;;;;;;;;;;;;;19.57;90.24;99421.63;4976726;28;911;-63
2022/07/28 02:57:11;;;;;;;;;;;;;;;19.50;90.42;99421.94;4994319;28;807;-63
2022/07/28 02:59:38;;;;;;;;;;;;;;;19.37;90.85;99420.16;4993967;28;831;-63
2022/07/28 03:02:05;;;;;;;;;;;;;;;19.25;91.44;99423.16;4993919;28;828;-63
2022/07/28 03:07:17;;;;;;;;;;;;;;;19.10;92.43;99432.22;4994027;28;1949;-63
2022/07/28 03:09:45;;;;;;;;;;;;;;;19.14;91.94;99432.81;4994222;28;828;-63
2022/07/28 03:12:12;;;;;;;;;;;;;;;19.20;91.16;99427.34;4993911;28;870;-63
2022/07/28 03:14:39;;;;;;;;;;;;;;;19.16;90.91;99433.13;4976255;28;1190;-63
2022/07/28 03:17:05;;;;;;;;;;;;;;;19.08;91.00;99436.72;4993758;28;831;-63
2022/07/28 03:19:32;;;;;;;;;;;;;;;18.98;91.42;99435.97;4993876;28;811;-63
2022/07/28 03:21:58;;;;;;;;;;;;;;;18.96;91.53;99435.66;4993963;28;833;-63
2022/07/28 03:24:27;;;;;;;;;;;;;;;19.08;90.26;99439.53;4976201;28;1340;-63
2022/07/28 03:26:58;;;;;;;;;;;;;;;19.15;88.95;99439.97;4993603;28;1894;-63
2022/07/28 03:29:26;;;;;;;;;;;;;;;19.37;85.36;99436.16;4993486;28;815;-63
2022/07/28 03:31:53;;;;;;;;;;;;;;;19.56;82.42;99440.44;4993375;28;1025;-64
2022/07/28 03:34:20;;;;;;;;;;;;;;;19.66;81.08;99448.84;4993075;28;1285;-63
2022/07/28 03:36:49;;;;;;;;;;;;;;;19.67;79.90;99439.16;4993305;28;835;-63
2022/07/28 03:39:17;;;;;;;;;;;;;;;19.70;78.74;99455.09;4993333;28;863;-63
2022/07/28 03:41:44;;;;;;;;;;;;;;;19.75;77.64;99451.63;4993176;28;842;-63
2022/07/28 03:44:12;;;;;;;;;;;;;;;19.81;76.94;99458.16;4993180;28;894;-63
2022/07/28 03:46:45;;;;;;;;;;;;;;;19.88;76.75;99454.22;4992950;28;1914;-63
2022/07/28 03:49:12;;;;;;;;;;;;;;;19.96;76.63;99463.84;4993139;28;839;-63
2022/07/28 03:51:39;;;;;;;;;;;;;;;20.03;76.49;99455.06;4993185;28;823;-63
2022/07/28 03:54:06;;;;;;;;;;;;;;;20.10;76.00;99465.16;4993008;28;796;-62
2022/07/28 03:56:32;;;;;;;;;;;;;;;20.16;75.24;99460.44;4992921;28;877;-63
2022/07/28 03:58:58;;;;;;;;;;;;;;;20.22;74.17;99466.94;4992123;28;874;-63
2022/07/28 04:01:25;;;;;;;;;;;;;;;20.31;73.49;99463.31;4992831;28;835;-63
2022/07/28 04:03:52;;;;;;;;;;;;;;;20.43;72.88;99467.91;4975313;28;1229;-63
2022/07/28 04:06:18;;;;;;;;;;;;;;;20.57;72.40;99461.59;4992923;28;1878;-63
2022/07/28 04:08:45;;;;;;;;;;;;;;;20.73;72.18;99468.78;4993005;28;867;-63
2022/07/28 04:11:12;;;;;;;;;;;;;;;20.91;71.81;99469.88;4992654;28;850;-63
2022/07/28 04:13:39;;;;;;;;;;;;;;;21.08;71.39;99473.81;4992670;28;827;-63
2022/07/28 04:16:06;;;;;;;;;;;;;;;21.25;70.78;99476.94;4992538;28;851;-63
2022/07/28 04:18:33;;;;;;;;;;;;;;;21.42;70.41;99477.22;4992502;28;843;-63
2022/07/28 04:20:59;;;;;;;;;;;;;;;21.59;70.07;99472.66;4992576;28;875;-64
2022/07/28 04:23:26;;;;;;;;;;;;;;;21.81;69.30;99477.84;4992494;28;869;-64
2022/07/28 04:25:52;;;;;;;;;;;;;;;22.04;68.23;99483.84;4992424;28;1943;-64
2022/07/28 04:28:19;;;;;;;;;;;;;;;22.24;67.24;99480.28;4992438;28;870;-64
2022/07/28 04:30:46;;;;;;;;;;;;;;;22.42;66.42;99479.22;4992337;28;891;-64
2022/07/28 04:33:13;;;;;;;;;;;;;;;22.53;66.19;99482.22;4974962;28;953;-64
2022/07/28 04:35:40;;;;;;;;;;;;;;;22.68;66.58;99484.94;4992221;28;1457;-64
2022/07/28 04:38:07;;;;;;;;;;;;;;;22.81;67.12;99490.22;4992234;28;866;-64
2022/07/28 04:40:33;;;;;;;;;;;;;;;22.94;67.60;99490.63;4992304;28;866;-63
2022/07/28 04:43:02;;;;;;;;;;;;;;;23.12;67.49;99492.38;4992229;28;866;-64
2022/07/28 04:45:29;;;;;;;;;;;;;;;23.30;67.62;99493.28;4992004;28;1973;-63
2022/07/28 04:47:56;;;;;;;;;;;;;;;23.45;67.85;99493.97;4992213;28;811;-63
2022/07/28 04:50:23;;;;;;;;;;;;;;;23.58;67.74;99494.34;4992181;28;823;-63
2022/07/28 04:52:49;;;;;;;;;;;;;;;23.65;68.47;99493.09;4992225;28;844;-63
2022/07/28 04:55:17;;;;;;;;;;;;;;;23.73;68.49;99499.84;4992129;28;887;-63
2022/07/28 04:57:44;;;;;;;;;;;;;;;23.85;68.38;99500.72;4992095;28;820;-63
2022/07/28 05:00:11;;;;;;;;;;;;;;;24.18;68.41;99496.56;4992055;28;891;-63
2022/07/28 05:02:39;;;;;;;;;;;;;;;24.45;68.60;99504.44;4992057;28;1036;-63
2022/07/28 05:05:06;;;;;;;;;;;;;;;24.54;68.70;99502.69;4992055;28;808;-63
2022/07/28 05:07:33;;;;;;;;;;;;;;;24.53;68.94;99512.44;4992071;28;1906;-63
2022/07/28 05:10:00;;;;;;;;;;;;;;;24.53;69.50;99516.03;4992134;28;909;-63
2022/07/28 05:12:26;;;;;;;;;;;;;;;24.71;69.57;99519.69;4995992;28;820;-63
2022/07/28 05:14:52;;;;;;;;;;;;;;;24.86;69.32;99518.22;4978428;28;1464;-63
2022/07/28 05:17:19;;;;;;;;;;;;;;;25.00;68.99;99518.53;4995890;28;807;-63
2022/07/28 05:19:46;;;;;;;;;;;;;;;25.19;68.76;99518.84;4995863;28;866;-63
2022/07/28 05:22:13;;;;;;;;;;;;;;;25.39;68.35;99523.50;4995944;28;854;-63
2022/07/28 05:24:40;;;;;;;;;;;;;;;25.65;67.78;99520.47;4995767;28;866;-63
2022/07/28 05:27:07;;;;;;;;;;;;;;;25.94;67.32;99518.41;4995671;28;1882;-63
2022/07/28 05:29:37;;;;;;;;;;;;;;;26.11;66.95;99518.38;4996041;28;866;-63
2022/07/28 05:32:04;;;;;;;;;;;;;;;26.32;66.93;99525.28;4995490;28;906;-63
2022/07/28 05:34:31;;;;;;;;;;;;;;;26.58;65.75;99516.47;4995507;28;1115;-63
2022/07/28 05:36:58;;;;;;;;;;;;;;;26.89;64.92;99517.38;4993896;28;1488;-63
2022/07/28 05:39:24;;;;;;;;;;;;;;;27.28;64.81;99522.84;4995450;28;862;-63
2022/07/28 05:41:51;;;;;;;;;;;;;;;27.83;63.38;99520.13;4995758;28;839;-63
2022/07/28 05:44:18;;;;;;;;;;;;;;;28.38;61.27;99522.19;4995254;28;826;-63
2022/07/28 05:46:44;;;;;;;;;;;;;;;28.89;59.52;99525.19;4995274;28;1977;-64
2022/07/28 05:49:11;;;;;;;;;;;;;;;29.59;57.57;99528.09;4995271;28;895;-64
2022/07/28 05:51:37;;;;;;;;;;;;;;;30.19;55.66;99528.91;4995275;28;811;-64
2022/07/28 05:54:04;;;;;;;;;;;;;;;31.04;53.38;99533.75;4995297;28;871;-63
2022/07/28 06:08:40;;;;;;;;;;;;;;;29.74;48.65;99539.00;4995327;28;613;-63
2022/07/28 06:11:10;;;;;;;;;;;;;;;29.16;49.92;99536.78;4994906;28;886;-63
2022/07/28 06:13:38;;;;;;;;;;;;;;;29.08;49.95;99536.59;4994755;28;878;-63
2022/07/28 06:16:05;;;;;;;;;;;;;;;29.73;49.61;99531.78;4994812;28;831;-63
2022/07/28 06:18:32;;;;;;;;;;;;;;;30.75;47.47;99530.72;4994775;28;858;-63
2022/07/28 06:20:58;;;;;;;;;;;;;;;31.60;44.74;99528.84;4995045;28;882;-63
2022/07/28 06:23:25;;;;;;;;;;;;;;;31.92;44.26;99535.03;4993850;28;890;-63
2022/07/28 06:25:51;;;;;;;;;;;;;;;32.92;42.42;99538.59;4994555;28;1903;-63
2022/07/28 06:28:18;;;;;;;;;;;;;;;33.73;40.27;99541.28;4994603;28;886;-63
2022/07/28 06:30:48;;;;;;;;;;;;;;;33.69;40.01;99540.91;4994611;28;831;-63
2022/07/28 06:33:16;;;;;;;;;;;;;;;33.70;39.13;99540.34;4994816;28;905;-63
2022/07/28 06:35:43;;;;;;;;;;;;;;;32.98;40.12;99535.53;4994312;28;1061;-62
2022/07/28 06:38:09;;;;;;;;;;;;;;;32.34;41.86;99543.56;4976847;28;1383;-62
2022/07/28 06:40:36;;;;;;;;;;;;;;;32.70;40.90;99548.56;4994420;28;803;-63
2022/07/28 06:43:03;;;;;;;;;;;;;;;33.61;39.58;99543.78;4994196;28;819;-63
2022/07/28 06:45:30;;;;;;;;;;;;;;;34.74;36.72;99540.66;4994247;28;1914;-63
2022/07/28 06:47:56;;;;;;;;;;;;;;;35.40;36.83;99548.59;4994213;28;871;-63
2022/07/28 06:50:23;;;;;;;;;;;;;;;35.54;36.08;99559.22;4994239;28;878;-63
2022/07/28 06:52:49;;;;;;;;;;;;;;;35.43;35.50;99551.06;4994159;28;997;-62
2022/07/28 06:55:16;;;;;;;;;;;;;;;35.35;35.93;99559.72;4994338;28;855;-63
2022/07/28 06:57:43;;;;;;;;;;;;;;;35.71;35.73;99555.69;4994014;28;879;-62
2022/07/28 07:00:13;;;;;;;;;;;;;;;36.20;35.21;99559.16;4994039;28;839;-63
2022/07/28 07:02:40;;;;;;;;;;;;;;;36.26;34.59;99562.56;4994009;28;843;-62
2022/07/28 07:05:08;;;;;;;;;;;;;;;36.28;34.23;99567.72;4993874;28;800;-62
2022/07/28 07:07:36;;;;;;;;;;;;;;;36.32;33.27;99563.06;4976348;28;1890;-62
2022/07/28 07:10:03;;;;;;;;;;;;;;;36.59;33.35;99568.16;4993762;28;815;-63
2022/07/28 07:12:33;;;;;;;;;;;;;;;36.79;33.17;99563.38;4976266;28;1329;-63
2022/07/28 07:15:01;;;;;;;;;;;;;;;37.01;32.92;99564.44;4993679;28;814;-62
2022/07/28 07:17:28;;;;;;;;;;;;;;;37.15;32.32;99565.63;4993752;28;850;-63
2022/07/28 07:19:55;;;;;;;;;;;;;;;37.01;31.80;99569.44;4993605;28;866;-62
2022/07/28 07:22:22;;;;;;;;;;;;;;;36.87;32.65;99566.16;4993744;28;847;-63
2022/07/28 07:24:49;;;;;;;;;;;;;;;37.32;32.34;99569.81;4993560;28;847;-63
2022/07/28 07:27:16;;;;;;;;;;;;;;;37.66;32.11;99568.19;4993434;28;1953;-63
2022/07/28 07:29:43;;;;;;;;;;;;;;;37.35;31.85;99575.16;4993469;28;800;-63
2022/07/28 07:32:12;;;;;;;;;;;;;;;37.72;31.31;99568.69;4993415;28;1014;-63
2022/07/28 07:34:39;;;;;;;;;;;;;;;37.43;30.70;99566.41;4993122;28;1231;-63
2022/07/28 07:37:06;;;;;;;;;;;;;;;37.15;30.85;99573.50;4975861;28;1209;-63
2022/07/28 07:39:33;;;;;;;;;;;;;;;37.07;30.77;99578.59;4993206;28;810;-63
2022/07/28 07:42:00;;;;;;;;;;;;;;;37.24;29.76;99574.94;4993178;28;878;-63
2022/07/28 07:44:27;;;;;;;;;;;;;;;37.38;29.89;99579.75;4993151;28;890;-63
2022/07/28 07:46:53;;;;;;;;;;;;;;;37.66;28.74;99580.53;4993033;28;1972;-64
2022/07/28 07:49:21;;;;;;;;;;;;;;;37.66;28.65;99588.38;4993033;28;862;-63
2022/07/28 07:51:47;;;;;;;;;;;;;;;37.75;28.38;99576.91;4993285;28;823;-63
2022/07/28 07:54:14;;;;;;;;;;;;;;;37.89;28.12;99580.13;4993230;28;836;-62
2022/07/28 07:56:40;;;;;;;;;;;;;;;37.76;29.07;99580.53;4993032;28;847;-63
2022/07/28 07:59:07;;;;;;;;;;;;;;;37.66;28.91;99580.53;4992903;28;831;-63
2022/07/28 08:01:34;;;;;;;;;;;;;;;37.79;28.77;99577.22;4992844;28;816;-64
2022/07/28 08:04:03;;;;;;;;;;;;;;;37.96;28.32;99579.28;4992836;28;847;-63
2022/07/28 08:06:29;;;;;;;;;;;;;;;37.54;28.66;99577.38;4992689;28;1953;-64
2022/07/28 08:08:56;;;;;;;;;;;;;;;37.03;29.57;99579.00;4992741;28;815;-63
2022/07/28 08:11:23;;;;;;;;;;;;;;;36.83;29.42;99571.56;4975141;28;1170;-63
2022/07/28 08:13:50;;;;;;;;;;;;;;;37.11;29.16;99567.44;4992624;28;887;-63
2022/07/28 08:16:17;;;;;;;;;;;;;;;37.50;30.24;99579.19;4992593;28;803;-63
2022/07/28 08:18:44;;;;;;;;;;;;;;;37.56;28.70;99582.56;4975154;28;1288;-63
2022/07/28 08:21:11;;;;;;;;;;;;;;;37.40;28.11;99576.25;4992501;28;815;-63
2022/07/28 08:23:40;;;;;;;;;;;;;;;37.37;27.42;99571.69;4975088;28;1281;-63
2022/07/28 08:29:09;;;;;;;;;;;;;;;37.50;27.33;99579.19;4992486;28;614;-62
2022/07/28 08:31:36;;;;;;;;;;;;;;;37.64;27.07;99570.94;4992363;28;869;-63
2022/07/28 08:34:03;;;;;;;;;;;;;;;37.88;26.67;99572.09;4992462;28;1236;-64
2022/07/28 08:36:31;;;;;;;;;;;;;;;37.83;26.50;99576.78;4992589;28;875;-63
2022/07/28 08:51:26;;;;;;;;;;;;;;;36.36;25.23;99572.06;4992508;28;661;-64
2022/07/28 08:53:53;;;;;;;;;;;;;;;36.44;25.50;99571.97;4992201;28;860;-63
2022/07/28 08:56:31;;;;;;;;;;;;;;;36.32;25.60;99571.72;4992109;28;855;-63
2022/07/28 08:58:58;;;;;;;;;;;;;;;36.22;25.53;99570.84;4992134;28;839;-63
2022/07/28 09:01:25;;;;;;;;;;;;;;;36.42;26.10;99577.53;4992100;28;878;-63
2022/07/28 09:03:53;;;;;;;;;;;;;;;36.89;25.47;99569.19;4992038;28;792;-63
2022/07/28 09:06:29;;;;;;;;;;;;;;;37.05;25.78;99569.78;4992030;28;1996;-63
2022/07/28 09:11:58;;;;;;;;;;;;;;;36.80;25.29;99567.75;4992695;28;613;-63
2022/07/28 09:14:25;;;;;;;;;;;;;;;36.49;24.40;99562.31;4992323;28;823;-63
2022/07/28 09:16:52;;;;;;;;;;;;;;;36.27;24.09;99563.31;4992237;28;871;-63
2022/07/28 09:19:19;;;;;;;;;;;;;;;36.07;23.85;99563.06;4974560;28;1170;-64
2022/07/28 09:21:46;;;;;;;;;;;;;;;36.39;25.97;99559.34;4991956;28;901;-63
2022/07/28 09:24:31;;;;;;;;;;;;;;;36.84;24.43;99559.47;4992199;28;812;-62
2022/07/28 09:42:44;;;;;;;;;;;;;;;35.48;25.00;99552.19;4991895;28;518;-65
2022/07/28 09:45:12;;;;;;;;;;;;;;;35.32;25.71;99563.78;4990374;28;1226;-63
2022/07/28 09:47:42;;;;;;;;;;;;;;;35.30;25.28;99569.34;4991632;28;1977;-62
2022/07/28 09:50:19;;;;;;;;;;;;;;;35.24;25.01;99562.28;4991772;28;846;-63
2022/07/28 09:52:46;;;;;;;;;;;;;;;34.89;25.34;99564.91;4991641;28;882;-63
2022/07/28 09:55:13;;;;;;;;;;;;;;;34.83;25.59;99567.22;4991559;28;878;-63
2022/07/28 09:57:40;;;;;;;;;;;;;;;34.88;25.28;99574.84;4992819;28;807;-63
2022/07/28 10:00:09;;;;;;;;;;;;;;;34.65;25.74;99566.31;4995126;28;886;-63
2022/07/28 10:02:37;;;;;;;;;;;;;;;34.60;26.73;99573.75;4995139;28;831;-64
2022/07/28 10:33:43;;;;;;;;;;;;;;;34.24;29.03;99563.28;5485773;23;1528;-61
2022/07/28 10:39:04;;;;;;;;;;;;;;;34.50;27.73;99564.22;4994322;28;1132;-61
2022/07/28 10:44:33;;;;;;;;;;;;;;;34.31;28.84;99564.63;4994465;28;689;-62
2022/07/28 10:47:06;;;;;;;;;;;;;;;34.48;29.34;99567.69;4976774;28;1967;-62
2022/07/28 10:49:33;;;;;;;;;;;;;;;34.54;29.38;99562.47;4994268;28;795;-63
2022/07/28 10:52:02;;;;;;;;;;;;;;;34.25;30.27;99569.81;4994154;28;863;-62
2022/07/28 10:55:01;;;;;;;;;;;;;;;34.23;30.33;99570.38;4994206;28;878;-63
2022/07/28 10:57:38;;;;;;;;;;;;;;;33.96;29.94;99575.72;4994055;28;823;-62
2022/07/28 11:00:07;;;;;;;;;;;;;;;34.07;30.30;99566.72;4994060;28;1071;-62
2022/07/28 11:02:48;;;;;;;;;;;;;;;34.17;30.11;99567.69;4976557;28;851;-62
2022/07/28 11:05:35;;;;;;;;;;;;;;;34.28;30.22;99566.53;4994004;28;874;-63
2022/07/28 11:08:37;;;;;;;;;;;;;;;34.42;30.39;99574.94;4993552;28;855;-62
2022/07/28 11:11:11;;;;;;;;;;;;;;;34.47;30.54;99571.13;4992657;28;1189;-62
2022/07/28 11:13:53;;;;;;;;;;;;;;;34.55;30.23;99581.22;4993823;28;827;-63
2022/07/28 11:16:24;;;;;;;;;;;;;;;34.52;30.09;99561.53;4993774;28;787;-63
2022/07/28 11:19:08;;;;;;;;;;;;;;;34.69;29.87;99563.81;4993613;28;870;-62
2022/07/28 11:21:57;;;;;;;;;;;;;;;34.70;30.12;99571.84;4993723;28;811;-63
2022/07/28 11:24:23;;;;;;;;;;;;;;;34.78;30.51;99574.69;4993423;28;1067;-62
2022/07/28 11:26:53;;;;;;;;;;;;;;;35.09;30.28;99578.22;4976008;28;1866;-62
2022/07/28 11:29:20;;;;;;;;;;;;;;;35.62;30.16;99572.81;4975877;28;1419;-63
2022/07/28 11:31:47;;;;;;;;;;;;;;;35.65;28.88;99577.41;4975893;28;1201;-61
2022/07/28 11:34:14;;;;;;;;;;;;;;;35.50;29.30;99566.72;4993321;28;1387;-62
2022/07/28 11:37:00;;;;;;;;;;;;;;;35.41;29.29;99568.13;4993504;28;827;-63
2022/07/28 11:39:28;;;;;;;;;;;;;;;35.32;29.94;99565.88;4993300;28;878;-63
2022/07/28 11:41:54;;;;;;;;;;;;;;;35.15;29.51;99569.41;4993234;28;922;-63
2022/07/28 11:44:29;;;;;;;;;;;;;;;35.31;29.89;99562.22;4975779;28;1284;-62
2022/07/28 11:50:16;;;;;;;;;;;;;;;35.64;29.13;99567.25;4993257;28;609;-62
2022/07/28 11:52:58;;;;;;;;;;;;;;;35.43;28.80;99565.44;4993351;28;839;-62
2022/07/28 11:55:29;;;;;;;;;;;;;;;35.56;28.59;99561.53;4993443;28;910;-62
2022/07/28 11:57:56;;;;;;;;;;;;;;;35.81;28.12;99570.19;4992974;28;812;-63
2022/07/28 12:03:34;;;;;;;;;;;;;;;36.30;27.65;99567.91;4985725;28;971;-62
2022/07/28 12:06:01;;;;;;;;;;;;;;;36.52;27.50;99566.13;4992829;28;1886;-64
2022/07/28 12:08:28;;;;;;;;;;;;;;;36.69;26.99;99557.53;4975584;28;1386;-63
2022/07/28 12:10:56;;;;;;;;;;;;;;;36.66;27.17;99563.69;4992755;28;858;-63
2022/07/28 12:13:26;;;;;;;;;;;;;;;36.60;26.61;99569.69;4992622;28;835;-65
2022/07/28 12:16:25;;;;;;;;;;;;;;;36.82;26.60;99567.94;4992722;28;835;-62
2022/07/28 12:19:15;;;;;;;;;;;;;;;37.21;26.67;99567.47;4993021;28;818;-62
2022/07/28 12:21:47;;;;;;;;;;;;;;;37.22;26.25;99569.78;4992311;28;830;-62
2022/07/28 12:24:19;;;;;;;;;;;;;;;37.21;25.55;99567.47;4992577;28;803;-64
2022/07/28 12:26:45;;;;;;;;;;;;;;;37.30;26.21;99566.78;4992446;28;1882;-63
2022/07/28 12:29:13;;;;;;;;;;;;;;;37.90;25.11;99570.13;4992788;28;858;-63
2022/07/28 12:31:59;;;;;;;;;;;;;;;37.53;25.83;99569.31;4992354;28;894;-63
2022/07/28 12:37:55;;;;;;;;;;;;;;;37.46;25.14;99565.19;4992467;28;744;-63
2022/07/28 12:40:22;;;;;;;;;;;;;;;37.44;25.20;99570.81;4992345;28;879;-62
2022/07/28 12:45:52;;;;;;;;;;;;;;;37.17;26.22;99565.81;4992276;28;1950;-63
2022/07/28 12:48:19;;;;;;;;;;;;;;;37.14;26.09;99566.22;4992502;28;882;-63
2022/07/28 12:50:50;;;;;;;;;;;;;;;37.15;25.78;99561.97;4992167;28;1205;-62
2022/07/28 12:53:21;;;;;;;;;;;;;;;37.26;26.62;99564.34;4992491;28;807;-63
2022/07/28 12:55:48;;;;;;;;;;;;;;;37.25;25.79;99559.91;4992153;28;858;-63
2022/07/28 12:58:27;;;;;;;;;;;;;;;36.94;26.10;99576.81;4992173;28;835;-63
2022/07/28 13:00:55;;;;;;;;;;;;;;;36.96;26.50;99568.34;4992051;28;811;-62
2022/07/28 13:03:26;;;;;;;;;;;;;;;37.25;26.13;99559.91;4992200;28;850;-63
2022/07/28 13:08:56;;;;;;;;;;;;;;;37.42;25.47;99553.34;4992289;28;740;-64
2022/07/28 13:11:32;;;;;;;;;;;;;;;37.64;25.56;99554.41;4974803;28;1478;-63
2022/07/28 13:13:58;;;;;;;;;;;;;;;37.87;25.63;99553.25;4991925;28;1111;-63
2022/07/28 13:16:35;;;;;;;;;;;;;;;37.77;24.17;99544.59;4991950;28;869;-64
2022/07/28 13:22:03;;;;;;;;;;;;;;;37.54;24.33;99547.81;4992016;28;685;-65
2022/07/28 13:27:33;;;;;;;;;;;;;;;37.83;24.07;99552.94;4991867;28;1974;-62
2022/07/28 13:30:03;;;;;;;;;;;;;;;37.55;23.54;99550.06;4991771;28;886;-63
2022/07/28 13:32:41;;;;;;;;;;;;;;;37.45;23.39;99555.03;4994517;28;958;-63
2022/07/28 13:38:11;;;;;;;;;;;;;;;36.95;24.41;99561.06;4995678;28;669;-63
2022/07/28 13:43:40;;;;;;;;;;;;;;;36.97;23.91;99556.22;4995537;28;684;-63
2022/07/28 13:46:11;;;;;;;;;;;;;;;36.92;23.89;99556.50;4995309;28;1936;-63
2022/07/28 13:48:42;;;;;;;;;;;;;;;37.24;24.42;99557.66;4977932;28;1369;-63
2022/07/28 13:51:10;;;;;;;;;;;;;;;37.42;24.56;99553.34;4977856;28;1233;-63
2022/07/28 13:53:39;;;;;;;;;;;;;;;37.26;24.37;99560.69;4995324;28;862;-66
2022/07/28 13:56:08;;;;;;;;;;;;;;;37.17;23.68;99547.72;4995214;28;901;-64
2022/07/28 13:58:35;;;;;;;;;;;;;;;36.93;23.79;99552.25;4995284;28;838;-63
2022/07/28 14:01:07;;;;;;;;;;;;;;;36.78;24.07;99553.19;4995007;28;839;-64
2022/07/28 14:03:34;;;;;;;;;;;;;;;36.66;24.89;99552.19;4995312;28;894;-63
2022/07/28 14:06:03;;;;;;;;;;;;;;;36.46;25.29;99545.47;4995038;28;1941;-63
2022/07/28 14:08:29;;;;;;;;;;;;;;;36.21;25.31;99554.16;4995020;28;831;-62
2022/07/28 14:11:05;;;;;;;;;;;;;;;35.96;25.67;99552.06;4995040;28;921;-63
2022/07/28 14:13:35;;;;;;;;;;;;;;;36.01;25.91;99553.16;4994921;28;819;-63
2022/07/28 14:16:07;;;;;;;;;;;;;;;36.39;25.35;99550.72;4994863;28;784;-63
2022/07/28 14:18:38;;;;;;;;;;;;;;;36.09;25.75;99548.88;4995208;28;775;-63
2022/07/28 14:21:08;;;;;;;;;;;;;;;35.17;26.15;99543.75;4994744;28;1078;-62
2022/07/28 14:23:43;;;;;;;;;;;;;;;34.94;26.92;99552.44;4994813;28;863;-62
2022/07/28 14:26:11;;;;;;;;;;;;;;;34.46;27.47;99564.63;4994586;28;1882;-63
2022/07/28 14:28:57;;;;;;;;;;;;;;;34.36;28.30;99555.06;4994604;28;827;-63
2022/07/28 14:31:24;;;;;;;;;;;;;;;34.17;28.02;99544.00;4994674;28;954;-62
2022/07/28 14:33:53;;;;;;;;;;;;;;;33.80;28.63;99554.09;4994136;28;1183;-62
2022/07/28 14:39:21;;;;;;;;;;;;;;;32.67;29.92;99566.13;4994584;28;621;-62
2022/07/28 14:41:47;;;;;;;;;;;;;;;32.28;30.01;99562.19;4994714;28;842;-63
2022/07/28 14:44:33;;;;;;;;;;;;;;;32.14;30.12;99561.53;4976245;28;1321;-61
2022/07/28 14:47:00;;;;;;;;;;;;;;;32.11;30.33;99559.78;4994336;28;1914;-62
2022/07/28 14:49:28;;;;;;;;;;;;;;;32.18;29.45;99559.09;4976739;28;1258;-62
2022/07/28 14:51:58;;;;;;;;;;;;;;;32.09;29.13;99565.28;4994282;28;783;-61
2022/07/28 14:54:24;;;;;;;;;;;;;;;32.25;29.65;99564.09;4994224;28;815;-62
2022/07/28 14:56:50;;;;;;;;;;;;;;;32.28;29.33;99576.50;4994084;28;1149;-62
2022/07/28 14:59:17;;;;;;;;;;;;;;;31.97;29.13;99572.63;4993971;28;1059;-62
2022/07/28 15:01:45;;;;;;;;;;;;;;;31.62;28.68;99563.31;4976606;28;1273;-62
